sensor_id;sensor_type;location;lat;lon;timestamp;pressure;altitude;pressure_sealevel;temperature;humidity
63096;BME280;49184;55.596;37.770;2022-09-03T04:17:00;100297.53;;;9.04;70.02
63096;BME280;49184;55.596;37.770;2022-09-03T04:19:27;100295.66;;;8.99;69.78
63096;BME280;49184;55.596;37.770;2022-09-03T04:21:55;100316.88;;;9.12;69.85
63096;BME280;49184;55.596;37.770;2022-09-03T04:24:21;100301.41;;;8.98;69.69
63096;BME280;49184;55.596;37.770;2022-09-03T04:26:47;100289.97;;;8.90;70.56
63096;BME280;49184;55.596;37.770;2022-09-03T04:29:15;100308.44;;;9.09;69.70
63096;BME280;49184;55.596;37.770;2022-09-03T04:31:42;100251.00;;;8.85;69.68
63096;BME280;49184;55.596;37.770;2022-09-03T04:34:28;100283.94;;;8.99;69.56
63096;BME280;49184;55.596;37.770;2022-09-03T04:36:55;100311.13;;;9.24;69.81
63096;BME280;49184;55.596;37.770;2022-09-03T04:39:23;100304.81;;;9.24;69.87
63096;BME280;49184;55.596;37.770;2022-09-03T04:41:49;100312.19;;;9.23;69.41
63096;BME280;49184;55.596;37.770;2022-09-03T04:44:15;100299.41;;;9.18;69.86
63096;BME280;49184;55.596;37.770;2022-09-03T04:46:41;100280.81;;;9.26;69.41
63096;BME280;49184;55.596;37.770;2022-09-03T04:49:07;100322.94;;;9.64;68.36
63096;BME280;49184;55.596;37.770;2022-09-03T04:51:34;100314.50;;;9.60;68.74
63096;BME280;49184;55.596;37.770;2022-09-03T04:54:02;100314.22;;;9.57;68.93
63096;BME280;49184;55.596;37.770;2022-09-03T04:56:31;100284.00;;;9.43;67.89
63096;BME280;49184;55.596;37.770;2022-09-03T04:58:59;100284.47;;;9.55;68.29
63096;BME280;49184;55.596;37.770;2022-09-03T05:01:27;100284.72;;;9.64;67.88
63096;BME280;49184;55.596;37.770;2022-09-03T05:03:55;100301.28;;;9.73;68.24
63096;BME280;49184;55.596;37.770;2022-09-03T05:06:23;100321.34;;;9.97;68.26
63096;BME280;49184;55.596;37.770;2022-09-03T05:08:51;100328.75;;;9.97;67.50
63096;BME280;49184;55.596;37.770;2022-09-03T05:11:19;100299.81;;;9.91;67.33
63096;BME280;49184;55.596;37.770;2022-09-03T05:13:49;100286.25;;;9.75;66.76
63096;BME280;49184;55.596;37.770;2022-09-03T05:16:17;100298.47;;;9.88;66.60
63096;BME280;49184;55.596;37.770;2022-09-03T05:18:43;100334.28;;;10.21;66.92
63096;BME280;49184;55.596;37.770;2022-09-03T05:21:15;100290.75;;;10.00;66.54
63096;BME280;49184;55.596;37.770;2022-09-03T05:23:44;100299.28;;;10.23;66.12
63096;BME280;49184;55.596;37.770;2022-09-03T05:26:20;100280.31;;;10.02;66.29
63096;BME280;49184;55.596;37.770;2022-09-03T05:28:47;100319.47;;;10.32;66.29
63096;BME280;49184;55.596;37.770;2022-09-03T05:31:20;100289.78;;;10.15;65.81
63096;BME280;49184;55.596;37.770;2022-09-03T05:33:51;100265.84;;;10.02;65.55
63096;BME280;49184;55.596;37.770;2022-09-03T05:36:22;100306.59;;;10.32;65.55
63096;BME280;49184;55.596;37.770;2022-09-03T05:38:50;100259.72;;;10.15;65.40
63096;BME280;49184;55.596;37.770;2022-09-03T05:41:19;100342.34;;;10.70;64.85
63096;BME280;49184;55.596;37.770;2022-09-03T05:43:48;100342.03;;;10.77;64.69
63096;BME280;49184;55.596;37.770;2022-09-03T05:46:31;100311.50;;;10.65;65.21
63096;BME280;49184;55.596;37.770;2022-09-03T05:49:08;100303.25;;;10.70;64.71
63096;BME280;49184;55.596;37.770;2022-09-03T05:51:39;100351.88;;;11.02;63.45
63096;BME280;49184;55.596;37.770;2022-09-03T05:54:05;100294.94;;;10.80;63.39
63096;BME280;49184;55.596;37.770;2022-09-03T05:56:34;100352.94;;;11.06;62.36
63096;BME280;49184;55.596;37.770;2022-09-03T05:59:03;100352.31;;;11.09;62.50
63096;BME280;49184;55.596;37.770;2022-09-03T06:01:36;100370.91;;;11.36;61.55
63096;BME280;49184;55.596;37.770;2022-09-03T06:04:04;100326.03;;;11.13;61.49
63096;BME280;49184;55.596;37.770;2022-09-03T06:06:34;100350.34;;;11.39;61.93
63096;BME280;49184;55.596;37.770;2022-09-03T06:09:05;100364.00;;;11.63;62.59
63096;BME280;49184;55.596;37.770;2022-09-03T06:11:33;100345.25;;;11.51;61.00
63096;BME280;49184;55.596;37.770;2022-09-03T06:14:02;100364.59;;;11.79;61.13
63096;BME280;49184;55.596;37.770;2022-09-03T06:16:35;100311.94;;;11.44;59.71
63096;BME280;49184;55.596;37.770;2022-09-03T06:19:05;100278.44;;;11.33;59.90
63096;BME280;49184;55.596;37.770;2022-09-03T06:21:38;100332.13;;;11.91;60.63
63096;BME280;49184;55.596;37.770;2022-09-03T06:24:14;100325.84;;;11.90;60.81
63096;BME280;49184;55.596;37.770;2022-09-03T06:26:40;100347.63;;;12.01;59.48
63096;BME280;49184;55.596;37.770;2022-09-03T06:29:07;100342.50;;;12.13;57.75
63096;BME280;49184;55.596;37.770;2022-09-03T06:31:33;100367.22;;;12.27;57.88
63096;BME280;49184;55.596;37.770;2022-09-03T06:34:00;100376.19;;;12.32;58.51
63096;BME280;49184;55.596;37.770;2022-09-03T06:36:27;100345.06;;;12.23;58.15
63096;BME280;49184;55.596;37.770;2022-09-03T06:38:59;100369.06;;;12.31;56.65
63096;BME280;49184;55.596;37.770;2022-09-03T06:41:29;100347.00;;;12.22;57.21
63096;BME280;49184;55.596;37.770;2022-09-03T06:44:01;100384.59;;;12.55;57.54
63096;BME280;49184;55.596;37.770;2022-09-03T06:46:34;100381.84;;;12.55;56.77
63096;BME280;49184;55.596;37.770;2022-09-03T06:49:03;100352.78;;;12.54;56.35
63096;BME280;49184;55.596;37.770;2022-09-03T06:51:31;100373.38;;;12.84;55.52
63096;BME280;49184;55.596;37.770;2022-09-03T06:54:03;100336.69;;;12.66;55.26
63096;BME280;49184;55.596;37.770;2022-09-03T06:56:31;100325.78;;;12.61;54.97
63096;BME280;49184;55.596;37.770;2022-09-03T06:59:06;100369.44;;;13.04;54.89
63096;BME280;49184;55.596;37.770;2022-09-03T07:01:33;100383.34;;;13.26;54.47
63096;BME280;49184;55.596;37.770;2022-09-03T07:04:02;100296.66;;;12.79;53.32
63096;BME280;49184;55.596;37.770;2022-09-03T07:06:37;100378.03;;;13.30;52.48
63096;BME280;49184;55.596;37.770;2022-09-03T07:09:06;100362.56;;;13.34;52.95
63096;BME280;49184;55.596;37.770;2022-09-03T07:11:33;100370.00;;;13.33;53.67
63096;BME280;49184;55.596;37.770;2022-09-03T07:14:02;100354.91;;;13.17;52.53
63096;BME280;49184;55.596;37.770;2022-09-03T07:16:34;100358.09;;;13.24;52.48
63096;BME280;49184;55.596;37.770;2022-09-03T07:19:03;100355.13;;;13.21;52.54
63096;BME280;49184;55.596;37.770;2022-09-03T07:21:35;100370.53;;;13.35;52.48
63096;BME280;49184;55.596;37.770;2022-09-03T07:24:04;100286.91;;;12.86;52.09
63096;BME280;49184;55.596;37.770;2022-09-03T07:26:33;100379.47;;;13.55;51.81
63096;BME280;49184;55.596;37.770;2022-09-03T07:29:00;100313.63;;;13.22;50.73
63096;BME280;49184;55.596;37.770;2022-09-03T07:31:31;100319.75;;;13.19;49.89
63096;BME280;49184;55.596;37.770;2022-09-03T07:34:02;100338.78;;;13.29;50.81
63096;BME280;49184;55.596;37.770;2022-09-03T07:36:39;100319.22;;;13.17;49.55
63096;BME280;49184;55.596;37.770;2022-09-03T07:39:10;100369.19;;;13.33;49.29
63096;BME280;49184;55.596;37.770;2022-09-03T07:41:40;100377.13;;;13.48;50.17
63096;BME280;49184;55.596;37.770;2022-09-03T07:44:12;100346.09;;;13.34;50.30
63096;BME280;49184;55.596;37.770;2022-09-03T07:46:44;100338.19;;;13.32;50.20
63096;BME280;49184;55.596;37.770;2022-09-03T07:49:12;100360.84;;;13.52;48.87
63096;BME280;49184;55.596;37.770;2022-09-03T07:51:39;100375.78;;;13.59;49.67
63096;BME280;49184;55.596;37.770;2022-09-03T07:54:07;100326.66;;;13.44;49.38
63096;BME280;49184;55.596;37.770;2022-09-03T07:56:37;100308.34;;;13.39;48.53
63096;BME280;49184;55.596;37.770;2022-09-03T07:59:04;100353.19;;;13.62;49.52
63096;BME280;49184;55.596;37.770;2022-09-03T08:01:32;100340.34;;;13.72;48.88
63096;BME280;49184;55.596;37.770;2022-09-03T08:04:00;100368.16;;;14.06;49.49
63096;BME280;49184;55.596;37.770;2022-09-03T08:06:28;100353.78;;;14.09;47.30
63096;BME280;49184;55.596;37.770;2022-09-03T08:09:00;100333.78;;;13.95;46.82
63096;BME280;49184;55.596;37.770;2022-09-03T08:11:27;100366.81;;;14.18;48.18
63096;BME280;49184;55.596;37.770;2022-09-03T08:13:55;100366.03;;;14.26;48.25
63096;BME280;49184;55.596;37.770;2022-09-03T08:16:28;100364.09;;;14.26;47.29
63096;BME280;49184;55.596;37.770;2022-09-03T08:18:55;100304.78;;;13.89;45.93
63096;BME280;49184;55.596;37.770;2022-09-03T08:21:22;100333.03;;;14.03;45.51
63096;BME280;49184;55.596;37.770;2022-09-03T08:23:53;100351.41;;;14.17;45.01
63096;BME280;49184;55.596;37.770;2022-09-03T08:26:31;100292.91;;;13.80;45.53
63096;BME280;49184;55.596;37.770;2022-09-03T08:28:59;100345.91;;;13.94;45.75
63096;BME280;49184;55.596;37.770;2022-09-03T08:31:25;100308.97;;;13.86;44.82
63096;BME280;49184;55.596;37.770;2022-09-03T08:33:54;100299.66;;;13.96;45.48
63096;BME280;49184;55.596;37.770;2022-09-03T08:36:23;100327.72;;;14.29;44.98
63096;BME280;49184;55.596;37.770;2022-09-03T08:38:51;100298.97;;;14.13;43.82
63096;BME280;49184;55.596;37.770;2022-09-03T08:41:27;100341.72;;;14.42;44.21
63096;BME280;49184;55.596;37.770;2022-09-03T08:44:27;100363.63;;;14.69;44.81
63096;BME280;49184;55.596;37.770;2022-09-03T08:50:10;100360.41;;;14.76;44.04
63096;BME280;49184;55.596;37.770;2022-09-03T08:56:09;100332.84;;;14.45;43.68
63096;BME280;49184;55.596;37.770;2022-09-03T08:58:17;100302.19;;;14.51;44.21
63096;BME280;49184;55.596;37.770;2022-09-03T09:00:56;100303.88;;;14.70;42.63
63096;BME280;49184;55.596;37.770;2022-09-03T09:11:47;100360.84;;;14.92;43.06
63096;BME280;49184;55.596;37.770;2022-09-03T09:14:18;100354.91;;;14.76;43.50
63096;BME280;49184;55.596;37.770;2022-09-03T09:17:00;100357.00;;;14.70;43.80
63096;BME280;49184;55.596;37.770;2022-09-03T09:19:50;100329.38;;;14.53;43.66
63096;BME280;49184;55.596;37.770;2022-09-03T09:22:29;100273.97;;;14.23;43.50
63096;BME280;49184;55.596;37.770;2022-09-03T09:25:02;100296.69;;;14.60;43.33
63096;BME280;49184;55.596;37.770;2022-09-03T09:27:33;100292.91;;;14.78;43.10
63096;BME280;49184;55.596;37.770;2022-09-03T09:32:29;100307.81;;;15.17;40.90
63096;BME280;49184;55.596;37.770;2022-09-03T09:34:56;100268.28;;;14.73;40.98
63096;BME280;49184;55.596;37.770;2022-09-03T09:39:59;100277.72;;;14.81;40.69
63096;BME280;49184;55.596;37.770;2022-09-03T09:42:26;100287.09;;;15.20;39.86
63096;BME280;49184;55.596;37.770;2022-09-03T09:44:56;100328.66;;;15.58;41.35
63096;BME280;49184;55.596;37.770;2022-09-03T09:47:37;100288.59;;;15.43;39.46
63096;BME280;49184;55.596;37.770;2022-09-03T09:50:18;100307.47;;;15.67;38.34
63096;BME280;49184;55.596;37.770;2022-09-03T09:52:47;100241.91;;;15.38;38.52
63096;BME280;49184;55.596;37.770;2022-09-03T09:55:20;100275.28;;;15.63;38.19
63096;BME280;49184;55.596;37.770;2022-09-03T09:58:10;100350.13;;;16.22;38.23
63096;BME280;49184;55.596;37.770;2022-09-03T10:00:37;100259.13;;;15.79;38.30
63096;BME280;49184;55.596;37.770;2022-09-03T10:03:19;100319.47;;;16.06;38.03
63096;BME280;49184;55.596;37.770;2022-09-03T10:05:57;100306.50;;;15.89;39.01
63096;BME280;49184;55.596;37.770;2022-09-03T10:09:14;100337.97;;;16.14;38.11
63096;BME280;49184;55.596;37.770;2022-09-03T10:18:31;100336.88;;;15.49;36.88
63096;BME280;49184;55.596;37.770;2022-09-03T10:24:34;100335.78;;;15.59;38.06
63096;BME280;49184;55.596;37.770;2022-09-03T10:27:09;100292.22;;;15.13;37.99
63096;BME280;49184;55.596;37.770;2022-09-03T10:29:39;100237.53;;;14.71;38.83
63096;BME280;49184;55.596;37.770;2022-09-03T10:32:34;100330.91;;;15.47;38.08
63096;BME280;49184;55.596;37.770;2022-09-03T10:35:28;100223.16;;;14.92;37.40
63096;BME280;49184;55.596;37.770;2022-09-03T10:40:51;100327.91;;;15.66;37.16
63096;BME280;49184;55.596;37.770;2022-09-03T10:44:05;100336.81;;;15.81;37.30
63096;BME280;49184;55.596;37.770;2022-09-03T10:50:08;100262.63;;;15.36;37.00
63096;BME280;49184;55.596;37.770;2022-09-03T10:53:12;100239.81;;;15.44;37.60
63096;BME280;49184;55.596;37.770;2022-09-03T10:56:04;100329.53;;;16.11;36.39
63096;BME280;49184;55.596;37.770;2022-09-03T11:04:57;100251.66;;;15.96;37.68
63096;BME280;49184;55.596;37.770;2022-09-03T11:07:35;100299.53;;;16.09;36.73
63096;BME280;49184;55.596;37.770;2022-09-03T11:10:21;100340.03;;;16.35;37.95
63096;BME280;49184;55.596;37.770;2022-09-03T11:13:10;100291.56;;;16.08;37.17
63096;BME280;49184;55.596;37.770;2022-09-03T11:16:01;100231.88;;;15.60;37.78
63096;BME280;49184;55.596;37.770;2022-09-03T11:19:12;100328.53;;;16.15;37.32
63096;BME280;49184;55.596;37.770;2022-09-03T11:24:52;100245.44;;;15.39;37.30
63096;BME280;49184;55.596;37.770;2022-09-03T11:30:54;100275.19;;;16.03;37.94
63096;BME280;49184;55.596;37.770;2022-09-03T11:37:29;100277.72;;;16.34;35.49
63096;BME280;49184;55.596;37.770;2022-09-03T11:40:15;100226.31;;;16.20;35.58
63096;BME280;49184;55.596;37.770;2022-09-03T11:42:46;100210.03;;;16.36;34.31
63096;BME280;49184;55.596;37.770;2022-09-03T11:45:46;100279.22;;;17.17;34.17
63096;BME280;49184;55.596;37.770;2022-09-03T11:52:23;100191.06;;;16.64;34.20
63096;BME280;49184;55.596;37.770;2022-09-03T11:55:02;100197.75;;;16.63;34.53
63096;BME280;49184;55.596;37.770;2022-09-03T11:57:55;100289.41;;;16.95;36.22
63096;BME280;49184;55.596;37.770;2022-09-03T12:00:35;100242.41;;;16.65;36.77
63096;BME280;49184;55.596;37.770;2022-09-03T12:04:02;100288.94;;;16.93;35.70
63096;BME280;49184;55.596;37.770;2022-09-03T12:15:41;100279.19;;;16.96;37.26
63096;BME280;49184;55.596;37.770;2022-09-03T12:18:18;100184.91;;;16.29;36.08
63096;BME280;49184;55.596;37.770;2022-09-03T12:21:02;100233.25;;;16.74;36.70
63096;BME280;49184;55.596;37.770;2022-09-03T12:23:56;100243.81;;;16.80;36.34
63096;BME280;49184;55.596;37.770;2022-09-03T12:26:26;100243.06;;;17.01;34.83
63096;BME280;49184;55.596;37.770;2022-09-03T12:29:03;100274.88;;;17.36;34.67
63096;BME280;49184;55.596;37.770;2022-09-03T12:31:47;100188.03;;;16.96;34.96
63096;BME280;49184;55.596;37.770;2022-09-03T12:34:22;100223.16;;;17.16;32.77
63096;BME280;49184;55.596;37.770;2022-09-03T12:36:50;100179.66;;;17.04;33.67
63096;BME280;49184;55.596;37.770;2022-09-03T12:39:25;100242.03;;;17.35;33.87
63096;BME280;49184;55.596;37.770;2022-09-03T12:42:22;100263.28;;;17.64;33.86
63096;BME280;49184;55.596;37.770;2022-09-03T12:44:52;100173.19;;;17.00;33.62
63096;BME280;49184;55.596;37.770;2022-09-03T12:47:26;100224.31;;;17.36;33.16
63096;BME280;49184;55.596;37.770;2022-09-03T12:52:58;100253.97;;;17.27;34.01
63096;BME280;49184;55.596;37.770;2022-09-03T12:55:36;100192.38;;;16.67;33.76
63096;BME280;49184;55.596;37.770;2022-09-03T12:58:45;100165.81;;;16.07;34.75
63096;BME280;49184;55.596;37.770;2022-09-03T13:01:24;100163.28;;;15.76;35.54
63096;BME280;49184;55.596;37.770;2022-09-03T13:04:09;100258.25;;;16.30;36.77
63096;BME280;49184;55.596;37.770;2022-09-03T13:06:58;100202.19;;;16.00;36.13
63096;BME280;49184;55.596;37.770;2022-09-03T13:09:29;100157.16;;;15.70;37.10
63096;BME280;49184;55.596;37.770;2022-09-03T13:11:58;100213.22;;;16.00;36.64
63096;BME280;49184;55.596;37.770;2022-09-03T13:14:26;100222.28;;;16.09;37.38
63096;BME280;49184;55.596;37.770;2022-09-03T13:23:17;100172.63;;;16.09;36.27
63096;BME280;49184;55.596;37.770;2022-09-03T13:26:45;100161.88;;;16.55;35.33
63096;BME280;49184;55.596;37.770;2022-09-03T13:47:31;100229.53;;;17.58;37.49
63096;BME280;49184;55.596;37.770;2022-09-03T13:50:23;100166.03;;;17.29;37.06
63096;BME280;49184;55.596;37.770;2022-09-03T13:55:44;100228.44;;;17.51;36.70
63096;BME280;49184;55.596;37.770;2022-09-03T14:02:39;100228.09;;;17.94;36.72
63096;BME280;49184;55.596;37.770;2022-09-03T14:21:38;100206.50;;;17.67;35.33
63096;BME280;49184;55.596;37.770;2022-09-03T14:24:15;100202.38;;;17.73;36.52
63096;BME280;49184;55.596;37.770;2022-09-03T14:26:59;100183.59;;;17.66;36.05
63096;BME280;49184;55.596;37.770;2022-09-03T14:29:34;100141.47;;;17.48;36.32
63096;BME280;49184;55.596;37.770;2022-09-03T14:32:20;100211.47;;;17.82;35.77
63096;BME280;49184;55.596;37.770;2022-09-03T14:40:40;100116.94;;;17.05;36.34
63096;BME280;49184;55.596;37.770;2022-09-03T14:58:06;100181.41;;;16.88;37.87
63096;BME280;49184;55.596;37.770;2022-09-03T15:11:55;100134.34;;;15.99;39.91
63096;BME280;49184;55.596;37.770;2022-09-03T15:14:38;100083.53;;;15.70;39.90
63096;BME280;49184;55.596;37.770;2022-09-03T15:31:40;100188.56;;;16.42;39.83
63096;BME280;49184;55.596;37.770;2022-09-03T15:36:49;100147.75;;;16.27;44.61
63096;BME280;49184;55.596;37.770;2022-09-03T15:39:25;100178.19;;;16.39;46.21
63096;BME280;49184;55.596;37.770;2022-09-03T15:41:58;100182.47;;;16.19;46.50
63096;BME280;49184;55.596;37.770;2022-09-03T15:44:34;100129.09;;;15.42;46.44
63096;BME280;49184;55.596;37.770;2022-09-03T15:47:10;100151.78;;;15.39;45.92
63096;BME280;49184;55.596;37.770;2022-09-03T15:49:53;100185.81;;;15.60;47.09
63096;BME280;49184;55.596;37.770;2022-09-03T15:52:54;100193.78;;;15.53;47.89
63096;BME280;49184;55.596;37.770;2022-09-03T15:55:33;100181.13;;;15.35;48.42
63096;BME280;49184;55.596;37.770;2022-09-03T15:58:30;100191.63;;;15.33;48.80
63096;BME280;49184;55.596;37.770;2022-09-03T16:15:40;100138.22;;;14.59;47.85
63096;BME280;49184;55.596;37.770;2022-09-03T16:18:29;100138.69;;;14.52;48.56
63096;BME280;49184;55.596;37.770;2022-09-03T16:21:13;100170.50;;;14.67;49.26
63096;BME280;49184;55.596;37.770;2022-09-03T16:24:12;100199.50;;;14.82;47.98
63096;BME280;49184;55.596;37.770;2022-09-03T16:26:49;100180.31;;;14.60;48.76
63096;BME280;49184;55.596;37.770;2022-09-03T16:29:27;100111.81;;;14.09;50.20
63096;BME280;49184;55.596;37.770;2022-09-03T16:40:25;100181.94;;;14.29;50.73
63096;BME280;49184;55.596;37.770;2022-09-03T16:57:22;100215.63;;;14.04;54.92
63096;BME280;49184;55.596;37.770;2022-09-03T17:00:14;100222.25;;;14.03;54.64
63096;BME280;49184;55.596;37.770;2022-09-03T17:12:13;100171.13;;;13.48;56.89
63096;BME280;49184;55.596;37.770;2022-09-03T17:15:48;100200.47;;;13.61;58.07
63096;BME280;49184;55.596;37.770;2022-09-03T17:26:09;100163.03;;;12.79;60.31
63096;BME280;49184;55.596;37.770;2022-09-03T17:31:53;100145.13;;;12.68;59.01
63096;BME280;49184;55.596;37.770;2022-09-03T17:34:42;100205.84;;;13.16;59.32
63096;BME280;49184;55.596;37.770;2022-09-03T17:40:35;100143.44;;;12.58;60.08
63096;BME280;49184;55.596;37.770;2022-09-03T17:50:27;100203.53;;;13.10;61.16
63096;BME280;49184;55.596;37.770;2022-09-03T17:53:43;100214.69;;;13.13;61.22
63096;BME280;49184;55.596;37.770;2022-09-03T17:57:10;100214.09;;;13.16;61.52
63096;BME280;49184;55.596;37.770;2022-09-03T18:08:17;100214.59;;;13.32;59.81
63096;BME280;49184;55.596;37.770;2022-09-03T18:26:58;100158.81;;;12.96;59.23
63096;BME280;49184;55.596;37.770;2022-09-03T18:32:45;100141.56;;;12.95;59.05
63096;BME280;49184;55.596;37.770;2022-09-03T18:35:31;100152.72;;;12.99;58.61
63096;BME280;49184;55.596;37.770;2022-09-03T18:38:30;100166.22;;;13.09;58.43
63096;BME280;49184;55.596;37.770;2022-09-03T19:06:29;100207.41;;;13.09;58.24
63096;BME280;49184;55.596;37.770;2022-09-03T19:15:38;100156.31;;;12.85;58.01
63096;BME280;49184;55.596;37.770;2022-09-03T19:18:47;100126.16;;;12.58;58.77
63096;BME280;49184;55.596;37.770;2022-09-03T19:21:46;100156.94;;;12.68;59.26
63096;BME280;49184;55.596;37.770;2022-09-03T19:24:33;100152.75;;;12.71;59.39
63096;BME280;49184;55.596;37.770;2022-09-03T19:52:43;100168.78;;;13.05;60.57
63096;BME280;49184;55.596;37.770;2022-09-03T19:55:35;100133.44;;;12.76;60.74
63096;BME280;49184;55.596;37.770;2022-09-03T19:58:23;100122.69;;;12.66;60.44
63096;BME280;49184;55.596;37.770;2022-09-03T20:01:12;100103.72;;;12.56;60.89
63096;BME280;49184;55.596;37.770;2022-09-03T20:04:13;100121.28;;;12.55;60.81
63096;BME280;49184;55.596;37.770;2022-09-03T20:07:05;100153.38;;;12.82;60.12
63096;BME280;49184;55.596;37.770;2022-09-03T20:09:54;100078.84;;;12.38;59.53
63096;BME280;49184;55.596;37.770;2022-09-03T20:13:10;100066.97;;;12.29;59.44
63096;BME280;49184;55.596;37.770;2022-09-03T20:21:49;100179.03;;;13.00;59.49
63096;BME280;49184;55.596;37.770;2022-09-03T20:30:06;100149.78;;;12.81;60.06
63096;BME280;49184;55.596;37.770;2022-09-03T20:35:26;100180.66;;;13.01;59.75
63096;BME280;49184;55.596;37.770;2022-09-03T20:38:05;100192.34;;;13.06;59.85
63096;BME280;49184;55.596;37.770;2022-09-03T20:40:44;100197.41;;;13.13;59.69
63096;BME280;49184;55.596;37.770;2022-09-03T20:43:25;100190.31;;;13.12;59.71
63096;BME280;49184;55.596;37.770;2022-09-03T20:46:07;100194.56;;;13.18;59.48
63096;BME280;49184;55.596;37.770;2022-09-03T20:51:43;100132.22;;;12.82;59.78
63096;BME280;49184;55.596;37.770;2022-09-03T20:54:28;100131.63;;;12.85;59.71
63096;BME280;49184;55.596;37.770;2022-09-03T21:02:32;100184.06;;;13.20;59.93
63096;BME280;49184;55.596;37.770;2022-09-03T21:08:36;100105.63;;;12.69;59.66
63096;BME280;49184;55.596;37.770;2022-09-03T21:11:26;100119.72;;;12.76;59.54
63096;BME280;49184;55.596;37.770;2022-09-03T21:25:07;100150.13;;;13.16;59.65
63096;BME280;49184;55.596;37.770;2022-09-03T21:27:53;100120.03;;;12.88;59.97
63096;BME280;49184;55.596;37.770;2022-09-03T21:30:21;100129.75;;;12.94;60.08
63096;BME280;49184;55.596;37.770;2022-09-03T21:32:57;100143.13;;;13.10;60.17
63096;BME280;49184;55.596;37.770;2022-09-03T21:35:32;100192.19;;;13.39;60.37
63096;BME280;49184;55.596;37.770;2022-09-03T21:38:06;100185.56;;;13.40;60.23
63096;BME280;49184;55.596;37.770;2022-09-03T21:41:13;100130.81;;;13.07;60.24
63096;BME280;49184;55.596;37.770;2022-09-03T21:44:07;100187.84;;;13.38;60.28
63096;BME280;49184;55.596;37.770;2022-09-03T21:46:55;100196.88;;;13.38;60.02
63096;BME280;49184;55.596;37.770;2022-09-03T21:49:29;100151.16;;;13.06;60.29
63096;BME280;49184;55.596;37.770;2022-09-03T21:52:07;100126.00;;;12.90;60.30
63096;BME280;49184;55.596;37.770;2022-09-03T21:54:36;100169.88;;;13.18;60.20
63096;BME280;49184;55.596;37.770;2022-09-03T22:00:05;100192.50;;;13.37;60.54
63096;BME280;49184;55.596;37.770;2022-09-03T22:02:39;100192.50;;;13.37;60.50
63096;BME280;49184;55.596;37.770;2022-09-03T22:05:06;100174.75;;;13.21;60.75
63096;BME280;49184;55.596;37.770;2022-09-03T22:08:02;100191.31;;;13.30;60.85
63096;BME280;49184;55.596;37.770;2022-09-03T22:10:47;100193.34;;;13.24;61.17
63096;BME280;49184;55.596;37.770;2022-09-03T22:13:44;100187.44;;;13.17;61.28
63096;BME280;49184;55.596;37.770;2022-09-03T22:16:53;100158.94;;;12.90;61.69
63096;BME280;49184;55.596;37.770;2022-09-03T22:19:15;100146.56;;;12.79;61.85
63096;BME280;49184;55.596;37.770;2022-09-03T22:21:56;100196.72;;;13.07;61.62
63096;BME280;49184;55.596;37.770;2022-09-03T22:24:33;100148.38;;;12.70;62.40
63096;BME280;49184;55.596;37.770;2022-09-03T22:27:19;100202.63;;;13.01;62.14
63096;BME280;49184;55.596;37.770;2022-09-03T22:38:11;100198.69;;;12.79;63.11
63096;BME280;49184;55.596;37.770;2022-09-03T22:40:50;100182.34;;;12.60;63.12
63096;BME280;49184;55.596;37.770;2022-09-03T22:45:50;100206.81;;;12.70;61.12
63096;BME280;49184;55.596;37.770;2022-09-03T22:48:34;100156.03;;;12.32;61.06
63096;BME280;49184;55.596;37.770;2022-09-03T22:51:05;100118.84;;;12.12;61.09
63096;BME280;49184;55.596;37.770;2022-09-03T22:56:11;100112.25;;;12.13;59.97
63096;BME280;49184;55.596;37.770;2022-09-03T22:59:44;100195.34;;;12.68;60.23
63096;BME280;49184;55.596;37.770;2022-09-03T23:01:52;100184.16;;;12.51;60.58
63096;BME280;49184;55.596;37.770;2022-09-03T23:04:49;100155.81;;;12.28;60.17
63096;BME280;49184;55.596;37.770;2022-09-03T23:10:08;100150.97;;;12.25;60.01
63096;BME280;49184;55.596;37.770;2022-09-03T23:12:48;100183.88;;;12.39;60.20
63096;BME280;49184;55.596;37.770;2022-09-03T23:15:24;100157.75;;;12.28;60.37
63096;BME280;49184;55.596;37.770;2022-09-03T23:18:21;100160.69;;;12.31;60.39
63096;BME280;49184;55.596;37.770;2022-09-03T23:21:03;100196.25;;;12.50;60.72
63096;BME280;49184;55.596;37.770;2022-09-03T23:23:39;100179.88;;;12.31;60.31
63096;BME280;49184;55.596;37.770;2022-09-03T23:26:21;100152.25;;;12.14;60.85
63096;BME280;49184;55.596;37.770;2022-09-03T23:31:36;100145.38;;;11.84;60.94
63096;BME280;49184;55.596;37.770;2022-09-03T23:36:53;100209.03;;;12.27;60.99
63096;BME280;49184;55.596;37.770;2022-09-03T23:51:16;100122.59;;;11.56;60.58
63096;BME280;49184;55.596;37.770;2022-09-03T23:54:05;100174.34;;;11.71;61.42
